CDT,Max TemperatureF,Mean TemperatureF,Min TemperatureF,Max Dew PointF,MeanDew PointF,Min DewpointF,Max Humidity, Mean Humidity, Min Humidity, Max Sea Level PressureIn, Mean Sea Level PressureIn, Min Sea Level PressureIn, Max VisibilityMiles, Mean VisibilityMiles, Min VisibilityMiles, Max Wind SpeedMPH, Mean Wind SpeedMPH, Max Gust SpeedMPH,PrecipitationIn, CloudCover, Events, WindDirDegrees
2011-10-1,,,,,,,,,,,,,,,,,,,,,,
2011-10-2,,,,,,,,,,,,,,,,,,,,,,
2011-10-3,80,70,60,45,42,39,52,35,24,30.25,30.21,30.18,10,10,5,16,8,20,0.00,1,,118
2011-10-4,77,62,48,50,44,39,71,51,34,30.26,30.20,30.10,10,10,9,18,7,21,0.00,4,Thunderstorm,118
2011-10-5,80,65,50,54,47,32,100,59,21,30.16,30.11,30.02,10,10,9,16,6,26,0.00,1,Thunderstorm,165
2011-10-6,86,67,48,54,41,25,93,50,12,30.04,29.99,29.92,10,10,10,26,9,37,0.00,0,,193
2011-10-7,87,66,46,55,38,23,88,46,11,30.05,29.99,29.93,10,10,10,23,7,31,0.00,0,,181
2011-10-8,77,62,48,55,36,28,77,40,18,30.09,30.02,29.95,10,10,10,15,7,23,0.00,1,,263
2011-10-9,69,58,46,46,42,37,87,56,31,30.13,30.07,30.02,10,10,10,17,10,20,0.00,2,,31
2011-10-10,75,57,39,52,46,39,100,66,34,30.18,30.11,30.03,10,10,10,14,7,22,0.00,0,,95
2011-10-11,82,64,46,54,47,41,100,62,25,30.08,30.02,29.94,10,10,0,18,7,25,0.00,1,,254
2011-10-12,80,63,46,28,25,21,40,25,15,30.11,30.04,29.99,10,10,10,17,8,22,0.00,0,,18
2011-10-13,78,61,44,39,31,25,61,32,16,30.22,30.15,30.07,10,10,8,14,7,17,0.00,0,,122
2011-10-14,86,64,42,45,32,23,71,40,11,30.15,30.10,30.04,10,10,7,14,5,18,0.00,0,,300
2011-10-15,84,64,44,37,31,25,53,31,13,30.21,30.15,30.12,10,10,10,13,6,21,0.00,0,,12
2011-10-16,86,65,44,43,34,27,66,37,13,30.25,30.19,30.11,10,10,10,12,5,16,0.00,0,,293
2011-10-17,86,65,44,34,28,21,53,28,12,30.15,30.09,30.00,10,10,10,28,9,37,0.00,0,,307
2011-10-18,64,55,46,36,31,25,62,41,22,30.32,30.25,30.14,10,9,2,26,19,30,0.00,2,,21
2011-10-19,69,50,32,27,22,16,60,35,17,30.34,30.25,30.16,10,10,10,13,7,18,0.00,0,,142
2011-10-20,82,60,37,30,23,14,49,30,14,30.21,30.16,30.13,10,10,10,23,7,34,0.00,0,,333
2011-10-21,82,62,42,34,28,21,46,27,16,30.29,30.22,30.18,10,10,7,17,6,23,0.00,0,,308
2011-10-22,82,66,51,37,31,27,41,28,17,30.23,30.17,30.12,10,10,5,17,7,28,0.00,2,,299
2011-10-23,80,62,44,30,23,18,43,24,11,30.26,30.19,30.15,10,10,10,13,7,17,0.00,0,,30
2011-10-24,80,61,42,43,34,27,57,37,20,30.32,30.26,30.20,10,10,9,14,8,20,0.00,0,,101
2011-10-25,84,64,44,43,38,34,71,43,18,30.25,30.18,30.09,10,10,10,15,5,20,0.00,0,,295
2011-10-26,82,66,50,45,36,30,54,34,17,30.12,30.04,29.92,10,10,10,21,6,25,0.00,1,,259
2011-10-27,62,52,42,43,37,32,87,62,36,30.14,30.03,29.89,10,9,4,28,13,31,0.00,2,,28
2011-10-28,57,44,30,36,34,28,93,71,41,30.33,30.27,30.21,10,10,10,14,7,20,0.00,3,,37
2011-10-29,66,47,28,34,29,25,87,56,26,30.36,30.25,30.12,10,10,10,14,6,20,0.00,0,,173
2011-10-30,75,55,35,34,27,21,65,41,17,30.23,30.18,30.14,10,10,10,15,4,,0.00,0,,17
2011-10-31,75,55,35,34,27,18,70,36,16,30.30,30.24,30.15,10,10,10,14,7,21,0.00,0,,163